createdAt,value
2022-12-25T00:04:56.069Z,96975.40
2022-12-25T00:15:00.123Z,96987.48
2022-12-25T00:25:04.535Z,97000.08
2022-12-25T00:35:08.790Z,97010.52
2022-12-25T00:45:13.149Z,97019.64
2022-12-25T00:55:19.088Z,97024.10
2022-12-25T01:05:22.853Z,97040.90
2022-12-25T01:15:27.027Z,97064.95
2022-12-25T01:25:30.904Z,97079.54
2022-12-25T01:35:35.182Z,97084.36
2022-12-25T01:45:44.826Z,97093.64
2022-12-25T01:55:51.586Z,97090.97
2022-12-25T02:05:55.969Z,97088.98
2022-12-25T02:16:16.273Z,97093.33
2022-12-25T02:26:57.780Z,97117.34
2022-12-25T02:37:11.580Z,97120.77
2022-12-25T02:47:35.537Z,97121.11
2022-12-25T02:58:03.118Z,97124.69
2022-12-25T03:08:12.719Z,97142.58
2022-12-25T03:18:20.126Z,97141.00
2022-12-25T03:28:23.780Z,97147.42
2022-12-25T03:39:25.626Z,97140.70
2022-12-25T03:50:01.638Z,97146.66
2022-12-25T04:00:24.895Z,97161.75
2022-12-25T04:10:47.350Z,97176.05
2022-12-25T04:21:10.031Z,97182.95
2022-12-25T04:31:32.784Z,97180.06
2022-12-25T04:41:36.831Z,97187.80
2022-12-25T04:51:40.568Z,97199.73
2022-12-25T05:01:44.662Z,97203.30
2022-12-25T05:11:48.619Z,97209.92
2022-12-25T05:21:52.393Z,97220.61
2022-12-25T05:31:56.266Z,97214.56
2022-12-25T05:42:00.127Z,97225.41
2022-12-25T05:52:04.306Z,97244.19
2022-12-25T06:02:08.280Z,97251.77
2022-12-25T06:12:12.351Z,97262.86
2022-12-25T06:22:16.115Z,97271.91
2022-12-25T06:32:20.814Z,97264.42
2022-12-25T06:42:24.525Z,97290.48
2022-12-25T06:52:28.364Z,97300.60
2022-12-25T07:02:34.408Z,97316.64
2022-12-25T07:12:38.687Z,97329.59
2022-12-25T07:22:42.628Z,97341.71
2022-12-25T07:32:50.117Z,97358.55
2022-12-25T07:42:54.551Z,97375.23
2022-12-25T07:52:58.627Z,97396.39
2022-12-25T08:03:03.063Z,97400.85
2022-12-25T08:13:13.956Z,97414.89
2022-12-25T08:23:18.543Z,97410.80
2022-12-25T08:33:22.899Z,97410.94
2022-12-25T08:43:26.884Z,97415.38
2022-12-25T08:53:31.175Z,97417.69
2022-12-25T09:03:36.283Z,97404.98
2022-12-25T09:13:40.437Z,97394.88
2022-12-25T09:23:44.812Z,97407.45
2022-12-25T09:33:49.627Z,97418.05
2022-12-25T09:44:11.706Z,97427.50
2022-12-25T09:54:38.617Z,97426.11
2022-12-25T10:05:09.067Z,97433.48
2022-12-25T10:15:45.250Z,97440.15
2022-12-25T10:25:52.235Z,97445.37
2022-12-25T10:35:56.495Z,97443.00
2022-12-25T10:46:00.913Z,97425.87
2022-12-25T10:56:08.281Z,97416.35
2022-12-25T11:06:29.919Z,97407.64
2022-12-25T11:16:40.628Z,97383.34
2022-12-25T11:26:53.469Z,97369.29
2022-12-25T11:37:00.469Z,97358.95
2022-12-25T11:47:14.155Z,97367.52
2022-12-25T11:57:19.049Z,97364.08
2022-12-25T12:07:30.586Z,97364.73
2022-12-25T12:17:35.490Z,97357.28
2022-12-25T12:27:41.515Z,97349.26
2022-12-25T12:37:51.748Z,97357.40
2022-12-25T12:47:56.397Z,97357.42
2022-12-25T12:58:02.947Z,97351.17
2022-12-25T13:08:39.736Z,97346.58
2022-12-25T13:18:44.545Z,97341.59
2022-12-25T13:28:48.946Z,97347.44
2022-12-25T13:38:57.095Z,97346.02
2022-12-25T13:49:02.431Z,97357.48
2022-12-25T13:59:06.697Z,97357.08
2022-12-25T14:09:13.102Z,97362.03
2022-12-25T14:19:34.956Z,97369.95
2022-12-25T14:29:47.578Z,97372.54
2022-12-25T14:39:57.768Z,97356.56
2022-12-25T14:50:02.242Z,97372.14
2022-12-25T15:00:30.392Z,97372.11
2022-12-25T15:21:00.589Z,97341.84
2022-12-25T15:31:15.751Z,97351.75
2022-12-25T15:42:20.902Z,97375.27
2022-12-25T15:52:25.195Z,97406.55
2022-12-25T16:02:29.251Z,97404.27
2022-12-25T16:12:33.647Z,97395.13
2022-12-25T16:22:40.378Z,97384.80
2022-12-25T16:32:51.766Z,97349.09
2022-12-25T16:42:58.478Z,97345.65
2022-12-25T16:53:02.741Z,97322.00
2022-12-25T17:03:07.148Z,97340.23
2022-12-25T17:13:11.449Z,97347.17
2022-12-25T17:23:16.047Z,97364.30
2022-12-25T17:33:20.387Z,97354.10
2022-12-25T17:43:24.774Z,97328.80
2022-12-25T17:53:28.939Z,97304.28
2022-12-25T18:03:33.302Z,97270.84
2022-12-25T18:13:38.222Z,97260.27
2022-12-25T18:23:42.992Z,97258.04
2022-12-25T18:33:48.194Z,97281.16
2022-12-25T18:43:55.586Z,97286.88
2022-12-25T18:54:02.185Z,97289.48
2022-12-25T19:04:06.760Z,97285.54
2022-12-25T19:14:11.125Z,97271.82
2022-12-25T19:24:16.236Z,97268.93
2022-12-25T19:34:20.728Z,97262.83
2022-12-25T19:44:26.522Z,97247.50
2022-12-25T19:54:31.474Z,97259.41
2022-12-25T20:04:36.260Z,97268.88
2022-12-25T20:14:41.029Z,97253.66
2022-12-25T20:24:48.163Z,97229.34
2022-12-25T20:34:52.775Z,97229.13
2022-12-25T20:44:57.321Z,97208.79
2022-12-25T20:55:02.558Z,97206.40
2022-12-25T21:05:11.969Z,97192.68
2022-12-25T21:15:16.649Z,97178.20
2022-12-25T21:25:20.585Z,97175.75
2022-12-25T21:35:25.075Z,97170.90
2022-12-25T21:45:30.547Z,97152.29
2022-12-25T21:55:35.666Z,97129.15
2022-12-25T22:05:58.466Z,97118.04
2022-12-25T22:16:24.975Z,97113.35
2022-12-25T22:26:28.958Z,97107.13
2022-12-25T22:36:33.171Z,97096.04
2022-12-25T22:46:37.525Z,97114.67
2022-12-25T22:56:41.562Z,97075.69
2022-12-25T23:06:46.901Z,97063.47
2022-12-25T23:16:50.832Z,97050.93
2022-12-25T23:26:55.948Z,97043.23
2022-12-25T23:37:00.433Z,97030.79
2022-12-25T23:47:05.788Z,97032.63
2022-12-25T23:57:11.358Z,97024.58
